Time;durP1;ratioP1;P1;durP2;ratioP2;P2;SDS_P1;SDS_P2;PMS_P1;PMS_P2;Temp;Humidity;BMP_temperature;BMP_pressure;BME280_temperature;BME280_humidity;BME280_pressure;Samples;Min_cycle;Max_cycle;Signal;HPM_P1;HPM_P2
2022/12/13 03:08:12;;;;;;;1999.90;999.90;;;;;;;;;;5011705;28;20420;-70
2022/12/13 03:11:03;;;;;;;1999.90;999.90;;;;;;;;;;5011589;28;20205;-70
2022/12/13 03:13:49;;;;;;;1999.90;999.90;;;;;;;;;;5013690;28;20448;-70
2022/12/13 03:16:37;;;;;;;1999.90;999.90;;;;;;;;;;5012775;28;20957;-71
2022/12/13 03:19:22;;;;;;;1999.90;999.90;;;;;;;;;;5012606;28;20958;-70
2022/12/13 03:22:08;;;;;;;1999.90;999.90;;;;;;;;;;5007846;28;20409;-70
2022/12/13 03:24:53;;;;;;;1999.90;999.90;;;;;;;;;;5011753;28;20455;-69
2022/12/13 03:27:38;;;;;;;1999.90;999.90;;;;;;;;;;5012689;28;20487;-70
2022/12/13 03:30:23;;;;;;;1999.90;999.90;;;;;;;;;;5012338;28;20198;-71
2022/12/13 03:33:08;;;;;;;1999.90;999.90;;;;;;;;;;5012803;28;20483;-71
2022/12/13 03:35:53;;;;;;;1999.90;999.90;;;;;;;;;;5011969;28;20424;-70
2022/12/13 03:38:40;;;;;;;1999.90;999.90;;;;;;;;;;5011988;28;20479;-69
2022/12/13 03:41:30;;;;;;;1999.90;999.90;;;;;;;;;;5012197;28;20432;-72
2022/12/13 03:44:15;;;;;;;1999.90;999.90;;;;;;;;;;5012077;28;20700;-68
2022/12/13 03:47:00;;;;;;;1999.90;999.90;;;;;;;;;;5012263;28;20492;-73
2022/12/13 03:49:44;;;;;;;1999.90;999.90;;;;;;;;;;5013152;28;20474;-71
2022/12/13 03:52:29;;;;;;;1999.90;999.90;;;;;;;;;;5013469;28;20416;-72
2022/12/13 03:55:16;;;;;;;1999.90;999.90;;;;;;;;;;5012491;28;20445;-70
2022/12/13 03:58:01;;;;;;;1999.90;999.90;;;;;;;;;;5008199;28;20420;-68
2022/12/13 04:00:46;;;;;;;1999.90;999.90;;;;;;;;;;5011963;28;20454;-70
2022/12/13 04:03:31;;;;;;;1999.90;999.90;;;;;;;;;;5011496;28;20420;-71
2022/12/13 04:06:17;;;;;;;1999.90;999.90;;;;;;;;;;5012694;28;21000;-69
2022/12/13 04:09:02;;;;;;;1999.90;999.90;;;;;;;;;;5012362;28;20827;-70
2022/12/13 04:14:51;;;;;;;1999.90;999.90;;;;;;;;;;5011512;28;20447;-69
2022/12/13 04:17:36;;;;;;;1999.90;999.90;;;;;;;;;;5011909;28;20950;-72
2022/12/13 04:20:21;;;;;;;1999.90;999.90;;;;;;;;;;5012179;28;20432;-71
2022/12/13 04:23:06;;;;;;;1999.90;999.90;;;;;;;;;;5013141;28;20467;-71
2022/12/13 04:25:51;;;;;;;1999.90;999.90;;;;;;;;;;5012316;28;20958;-72
2022/12/13 04:28:37;;;;;;;1999.90;999.90;;;;;;;;;;5012276;28;20521;-71
2022/12/13 04:31:22;;;;;;;1999.90;999.90;;;;;;;;;;5012700;28;20416;-71
2022/12/13 04:34:07;;;;;;;1999.90;999.90;;;;;;;;;;5011201;28;20412;-72
2022/12/13 04:36:51;;;;;;;1999.90;999.90;;;;;;;;;;5012372;28;20202;-71
2022/12/13 04:39:36;;;;;;;1999.90;999.90;;;;;;;;;;5012629;28;20425;-71
2022/12/13 04:42:21;;;;;;;1999.90;999.90;;;;;;;;;;5012528;28;20938;-71
2022/12/13 04:45:08;;;;;;;1999.90;999.90;;;;;;;;;;5012191;28;20440;-72
2022/12/13 04:47:53;;;;;;;1999.90;999.90;;;;;;;;;;5012278;28;20459;-71
2022/12/13 04:50:38;;;;;;;1999.90;999.90;;;;;;;;;;5012631;28;20934;-70
2022/12/13 04:53:23;;;;;;;1999.90;999.90;;;;;;;;;;5011846;28;20962;-71
2022/12/13 04:56:07;;;;;;;1999.90;999.90;;;;;;;;;;5011996;28;20203;-71
2022/12/13 04:58:53;;;;;;;1999.90;999.90;;;;;;;;;;5012316;28;20467;-71
2022/12/13 05:01:39;;;;;;;1999.90;999.90;;;;;;;;;;5012347;28;20564;-70
2022/12/13 05:04:24;;;;;;;1999.90;999.90;;;;;;;;;;5011881;28;20459;-71
2022/12/13 05:07:09;;;;;;;1999.90;999.90;;;;;;;;;;5012379;28;20961;-70
2022/12/13 05:09:54;;;;;;;1999.90;999.90;;;;;;;;;;5012131;28;20409;-70
2022/12/13 05:12:39;;;;;;;1999.90;999.90;;;;;;;;;;5012428;28;20775;-70
2022/12/13 05:15:24;;;;;;;1999.90;999.90;;;;;;;;;;5011892;28;20440;-71
2022/12/13 05:18:10;;;;;;;1999.90;999.90;;;;;;;;;;5012077;28;20423;-70
2022/12/13 05:20:56;;;;;;;1999.90;999.90;;;;;;;;;;5012149;28;20420;-71
2022/12/13 05:23:40;;;;;;;1999.90;999.90;;;;;;;;;;5012290;28;20424;-70
2022/12/13 05:26:25;;;;;;;1999.90;999.90;;;;;;;;;;5013045;28;20419;-71
2022/12/13 05:29:11;;;;;;;1999.90;999.90;;;;;;;;;;5015887;28;20466;-70
2022/12/13 05:31:56;;;;;;;1999.90;999.90;;;;;;;;;;5016115;28;20432;-70
2022/12/13 05:34:42;;;;;;;1999.90;999.90;;;;;;;;;;5015469;28;20868;-71
2022/12/13 05:37:27;;;;;;;1999.90;999.90;;;;;;;;;;5015919;28;20408;-71
2022/12/13 05:40:12;;;;;;;1999.90;999.90;;;;;;;;;;5015912;28;20420;-70
2022/12/13 05:42:57;;;;;;;1999.90;999.90;;;;;;;;;;5015618;28;20532;-70
2022/12/13 05:45:42;;;;;;;1999.90;999.90;;;;;;;;;;5015401;28;20567;-70
2022/12/13 05:48:27;;;;;;;1999.90;999.90;;;;;;;;;;5015592;28;20869;-70
2022/12/13 05:51:13;;;;;;;1999.90;999.90;;;;;;;;;;5015419;28;20838;-71
2022/12/13 05:53:58;;;;;;;1999.90;999.90;;;;;;;;;;5015553;28;20591;-71
2022/12/13 05:56:43;;;;;;;1999.90;999.90;;;;;;;;;;5013791;28;20866;-71
2022/12/13 05:59:28;;;;;;;1999.90;999.90;;;;;;;;;;5015609;28;20207;-70
2022/12/13 06:02:13;;;;;;;1999.90;999.90;;;;;;;;;;5015558;28;20499;-71
2022/12/13 06:04:58;;;;;;;1999.90;999.90;;;;;;;;;;5014562;28;20606;-70
2022/12/13 06:07:44;;;;;;;1999.90;999.90;;;;;;;;;;5015274;28;20460;-70
2022/12/13 06:10:29;;;;;;;1999.90;999.90;;;;;;;;;;5013006;28;20460;-71
2022/12/13 06:13:14;;;;;;;1999.90;999.90;;;;;;;;;;5012838;28;20507;-73
2022/12/13 06:16:01;;;;;;;1999.90;999.90;;;;;;;;;;5014023;28;20424;-72
2022/12/13 06:18:46;;;;;;;1999.90;999.90;;;;;;;;;;5012041;28;20953;-72
2022/12/13 06:21:31;;;;;;;1999.90;999.90;;;;;;;;;;5012534;28;20564;-72
2022/12/13 06:24:18;;;;;;;1999.90;999.90;;;;;;;;;;5013642;28;20456;-71
2022/12/13 06:27:04;;;;;;;1999.90;999.90;;;;;;;;;;5013967;28;20420;-73
2022/12/13 06:29:48;;;;;;;1999.90;999.90;;;;;;;;;;5012685;28;20667;-72
2022/12/13 06:32:33;;;;;;;1999.90;999.90;;;;;;;;;;5014507;28;20482;-74
2022/12/13 06:35:18;;;;;;;1999.90;999.90;;;;;;;;;;5011436;28;20550;-72
2022/12/13 06:38:04;;;;;;;1999.90;999.90;;;;;;;;;;5015898;28;20439;-72
2022/12/13 06:40:50;;;;;;;1999.90;999.90;;;;;;;;;;5019391;28;20427;-72
2022/12/13 06:43:34;;;;;;;1999.90;999.90;;;;;;;;;;5007705;28;20420;-72
2022/12/13 06:46:19;;;;;;;1999.90;999.90;;;;;;;;;;5011962;28;20459;-72
2022/12/13 06:49:04;;;;;;;1999.90;999.90;;;;;;;;;;5005955;28;20558;-74
2022/12/13 06:51:49;;;;;;;1999.90;999.90;;;;;;;;;;5010902;28;20898;-72
2022/12/13 06:54:34;;;;;;;1999.90;999.90;;;;;;;;;;5014011;28;20800;-72
2022/12/13 06:57:20;;;;;;;1999.90;999.90;;;;;;;;;;5013494;28;20619;-71
2022/12/13 07:00:06;;;;;;;1999.90;999.90;;;;;;;;;;5013993;28;20420;-71
2022/12/13 07:02:54;;;;;;;1999.90;999.90;;;;;;;;;;5005167;28;20592;-73
2022/12/13 07:05:39;;;;;;;1999.90;999.90;;;;;;;;;;4994953;28;21017;-72
2022/12/13 07:08:24;;;;;;;1999.90;999.90;;;;;;;;;;5013709;28;20455;-71
2022/12/13 07:11:13;;;;;;;1999.90;999.90;;;;;;;;;;5012994;28;20841;-74
2022/12/13 07:14:00;;;;;;;1999.90;999.90;;;;;;;;;;5013762;28;20974;-71
2022/12/13 07:16:45;;;;;;;1999.90;999.90;;;;;;;;;;5006595;28;20496;-72
2022/12/13 07:19:30;;;;;;;1999.90;999.90;;;;;;;;;;5006576;28;20322;-72
2022/12/13 07:22:15;;;;;;;1999.90;999.90;;;;;;;;;;5004686;28;21006;-72
2022/12/13 07:24:59;;;;;;;1999.90;999.90;;;;;;;;;;5012341;28;20483;-72
2022/12/13 07:27:44;;;;;;;1999.90;999.90;;;;;;;;;;5008011;28;20787;-72
2022/12/13 07:30:31;;;;;;;1999.90;999.90;;;;;;;;;;5013756;28;20966;-71
2022/12/13 07:33:16;;;;;;;1999.90;999.90;;;;;;;;;;5006991;28;20496;-71
2022/12/13 07:36:02;;;;;;;1999.90;999.90;;;;;;;;;;5011347;28;20595;-72
2022/12/13 07:38:50;;;;;;;1999.90;999.90;;;;;;;;;;5010117;28;21073;-72
2022/12/13 07:41:35;;;;;;;1999.90;999.90;;;;;;;;;;5009361;28;20452;-72
2022/12/13 07:44:20;;;;;;;1999.90;999.90;;;;;;;;;;5004988;28;20461;-72
2022/12/13 07:47:06;;;;;;;1999.90;999.90;;;;;;;;;;5013103;28;20919;-72
2022/12/13 07:49:51;;;;;;;1999.90;999.90;;;;;;;;;;5011177;28;21010;-74
2022/12/13 07:52:36;;;;;;;1999.90;999.90;;;;;;;;;;5012516;28;20509;-73
2022/12/13 07:55:21;;;;;;;1999.90;999.90;;;;;;;;;;5010100;28;20480;-72
2022/12/13 07:58:06;;;;;;;1999.90;999.90;;;;;;;;;;5010528;28;20938;-72
2022/12/13 08:00:51;;;;;;;1999.90;999.90;;;;;;;;;;5011338;28;20472;-71
2022/12/13 08:03:38;;;;;;;1999.90;999.90;;;;;;;;;;5012708;28;20419;-72
2022/12/13 08:06:23;;;;;;;1999.90;999.90;;;;;;;;;;5005396;28;20813;-72
2022/12/13 08:09:07;;;;;;;1999.90;999.90;;;;;;;;;;5008319;28;20961;-72
2022/12/13 08:11:52;;;;;;;1999.90;999.90;;;;;;;;;;5008378;28;21059;-73
2022/12/13 08:14:37;;;;;;;1999.90;999.90;;;;;;;;;;5012738;28;20536;-71
2022/12/13 08:17:22;;;;;;;1999.90;999.90;;;;;;;;;;5012822;28;20903;-73
2022/12/13 08:20:08;;;;;;;1999.90;999.90;;;;;;;;;;5012766;28;20416;-73
2022/12/13 08:33:26;;;;;;;1999.90;999.90;;;;;;;;;;5128804;27;20448;-71
2022/12/13 08:36:14;;;;;;;1999.90;999.90;;;;;;;;;;5109216;28;20245;-71
2022/12/13 08:39:01;;;;;;;1999.90;999.90;;;;;;;;;;5100624;28;20448;-71
2022/12/13 08:41:46;;;;;;;1999.90;999.90;;;;;;;;;;5091819;28;21009;-72
2022/12/13 08:44:31;;;;;;;1999.90;999.90;;;;;;;;;;5088751;28;20426;-71
2022/12/13 08:47:16;;;;;;;1999.90;999.90;;;;;;;;;;5088763;28;20425;-71
2022/12/13 08:50:03;;;;;;;1999.90;999.90;;;;;;;;;;5086262;28;20465;-72
2022/12/13 08:52:48;;;;;;;1999.90;999.90;;;;;;;;;;5091884;28;20421;-72
2022/12/13 08:55:33;;;;;;;1999.90;999.90;;;;;;;;;;5083698;28;20411;-71
2022/12/13 08:58:18;;;;;;;1999.90;999.90;;;;;;;;;;5100779;28;20207;-73
2022/12/13 09:01:04;;;;;;;1999.90;999.90;;;;;;;;;;5086706;28;20453;-72
2022/12/13 09:03:50;;;;;;;1999.90;999.90;;;;;;;;;;5091808;28;20440;-72
2022/12/13 09:06:36;;;;;;;1999.90;999.90;;;;;;;;;;5094111;28;20413;-73
2022/12/13 09:09:20;;;;;;;1999.90;999.90;;;;;;;;;;5099995;28;20425;-70
2022/12/13 09:12:05;;;;;;;1999.90;999.90;;;;;;;;;;5085778;28;20496;-70
2022/12/13 09:14:50;;;;;;;1999.90;999.90;;;;;;;;;;5087234;28;20437;-70
2022/12/13 09:17:35;;;;;;;1999.90;999.90;;;;;;;;;;5087373;28;20600;-70
2022/12/13 09:20:21;;;;;;;1999.90;999.90;;;;;;;;;;5091033;28;20413;-70
2022/12/13 09:23:07;;;;;;;1999.90;999.90;;;;;;;;;;5104849;28;20467;-71
2022/12/13 09:25:55;;;;;;;1999.90;999.90;;;;;;;;;;5103378;28;20422;-70
2022/12/13 09:28:40;;;;;;;1999.90;999.90;;;;;;;;;;5091701;28;20730;-71
2022/12/13 09:31:25;;;;;;;1999.90;999.90;;;;;;;;;;5090934;28;20835;-70
2022/12/13 09:34:10;;;;;;;1999.90;999.90;;;;;;;;;;5096719;28;20453;-70
2022/12/13 09:36:56;;;;;;;1999.90;999.90;;;;;;;;;;5080543;28;20468;-70
2022/12/13 09:39:42;;;;;;;1999.90;999.90;;;;;;;;;;5103731;28;20419;-73
2022/12/13 09:42:27;;;;;;;1999.90;999.90;;;;;;;;;;5094621;28;20478;-70
2022/12/13 09:45:14;;;;;;;1999.90;999.90;;;;;;;;;;5106682;28;20427;-72
2022/12/13 09:48:00;;;;;;;1999.90;999.90;;;;;;;;;;5112594;28;20507;-72
2022/12/13 09:50:45;;;;;;;1999.90;999.90;;;;;;;;;;5108685;28;20457;-69
2022/12/13 09:53:32;;;;;;;1999.90;999.90;;;;;;;;;;5094687;28;20448;-69
2022/12/13 09:56:19;;;;;;;1999.90;999.90;;;;;;;;;;5101457;28;20214;-69
2022/12/13 09:59:03;;;;;;;1999.90;999.90;;;;;;;;;;5097586;28;20432;-69
2022/12/13 10:01:48;;;;;;;1999.90;999.90;;;;;;;;;;5099222;28;21027;-70
2022/12/13 10:04:33;;;;;;;1999.90;999.90;;;;;;;;;;5086399;28;20497;-69
2022/12/13 10:07:19;;;;;;;1999.90;999.90;;;;;;;;;;5103056;28;20412;-69
2022/12/13 10:10:05;;;;;;;1999.90;999.90;;;;;;;;;;5092938;28;20461;-70
2022/12/13 10:12:54;;;;;;;1999.90;999.90;;;;;;;;;;5102153;28;20421;-69
2022/12/13 10:15:41;;;;;;;1999.90;999.90;;;;;;;;;;5093610;28;20433;-70
2022/12/13 10:18:32;;;;;;;1999.90;999.90;;;;;;;;;;5093852;28;20417;-69
2022/12/13 10:21:19;;;;;;;1999.90;999.90;;;;;;;;;;5090774;28;20453;-70
2022/12/13 10:24:05;;;;;;;1999.90;999.90;;;;;;;;;;5105516;28;20440;-69
2022/12/13 10:26:51;;;;;;;1999.90;999.90;;;;;;;;;;5113981;28;21039;-69
2022/12/13 10:29:55;;;;;;;1999.90;999.90;;;;;;;;;;5113912;28;20419;-70
2022/12/13 10:32:45;;;;;;;1999.90;999.90;;;;;;;;;;5096654;28;20818;-70
2022/12/13 10:35:33;;;;;;;1999.90;999.90;;;;;;;;;;5086220;28;20469;-70
2022/12/13 10:38:26;;;;;;;1999.90;999.90;;;;;;;;;;5096738;28;20443;-71
2022/12/13 10:41:29;;;;;;;1999.90;999.90;;;;;;;;;;5110129;28;20423;-70
2022/12/13 10:44:19;;;;;;;1999.90;999.90;;;;;;;;;;5087888;28;20523;-70
2022/12/13 10:47:13;;;;;;;1999.90;999.90;;;;;;;;;;5083637;28;20516;-69
2022/12/13 10:50:00;;;;;;;1999.90;999.90;;;;;;;;;;5097576;28;20440;-69
2022/12/13 10:52:47;;;;;;;1999.90;999.90;;;;;;;;;;5102682;28;20416;-72
2022/12/13 10:55:33;;;;;;;1999.90;999.90;;;;;;;;;;5113153;28;20450;-72
2022/12/13 10:58:19;;;;;;;1999.90;999.90;;;;;;;;;;5113655;28;20408;-70
2022/12/13 11:01:10;;;;;;;1999.90;999.90;;;;;;;;;;5112834;28;20415;-71
2022/12/13 11:03:58;;;;;;;1999.90;999.90;;;;;;;;;;5110395;28;20238;-69
2022/12/13 11:06:43;;;;;;;1999.90;999.90;;;;;;;;;;5084649;28;20449;-69
2022/12/13 11:09:30;;;;;;;1999.90;999.90;;;;;;;;;;5093571;28;20499;-71
2022/12/13 11:12:16;;;;;;;1999.90;999.90;;;;;;;;;;5101984;28;20500;-70
2022/12/13 11:15:02;;;;;;;1999.90;999.90;;;;;;;;;;5112940;28;20440;-70
2022/12/13 11:17:48;;;;;;;1999.90;999.90;;;;;;;;;;5107785;28;20459;-70
2022/12/13 11:20:35;;;;;;;1999.90;999.90;;;;;;;;;;5098812;28;20407;-71
2022/12/13 11:23:23;;;;;;;1999.90;999.90;;;;;;;;;;5089733;28;20478;-74
2022/12/13 11:26:09;;;;;;;1999.90;999.90;;;;;;;;;;5094336;28;20422;-70
2022/12/13 11:29:04;;;;;;;1999.90;999.90;;;;;;;;;;5092730;28;20204;-70
2022/12/13 11:31:54;;;;;;;1999.90;999.90;;;;;;;;;;5092245;28;20506;-70
2022/12/13 11:34:42;;;;;;;1999.90;999.90;;;;;;;;;;5094246;28;20428;-71
2022/12/13 11:37:31;;;;;;;1999.90;999.90;;;;;;;;;;5093256;28;20452;-70
2022/12/13 11:40:17;;;;;;;1999.90;999.90;;;;;;;;;;5097990;28;20521;-71
2022/12/13 11:43:04;;;;;;;1999.90;999.90;;;;;;;;;;5103931;28;20460;-70
2022/12/13 11:45:53;;;;;;;1999.90;999.90;;;;;;;;;;5112111;28;20419;-71
2022/12/13 11:48:41;;;;;;;1999.90;999.90;;;;;;;;;;5112444;28;20412;-70
2022/12/13 11:51:28;;;;;;;1999.90;999.90;;;;;;;;;;5102378;28;20447;-71
2022/12/13 11:54:17;;;;;;;1999.90;999.90;;;;;;;;;;5096087;28;20472;-72
2022/12/13 11:57:06;;;;;;;1999.90;999.90;;;;;;;;;;5095424;28;20443;-71
2022/12/13 11:59:54;;;;;;;1999.90;999.90;;;;;;;;;;5092581;28;20923;-71
2022/12/13 12:02:41;;;;;;;1999.90;999.90;;;;;;;;;;5099674;28;20448;-72
2022/12/13 12:05:28;;;;;;;1999.90;999.90;;;;;;;;;;5108937;28;20788;-71
2022/12/13 12:08:18;;;;;;;1999.90;999.90;;;;;;;;;;5099456;28;20439;-71
2022/12/13 12:11:08;;;;;;;1999.90;999.90;;;;;;;;;;5090668;28;20409;-71
2022/12/13 12:13:55;;;;;;;1999.90;999.90;;;;;;;;;;5095568;28;20448;-72
2022/12/13 12:16:40;;;;;;;1999.90;999.90;;;;;;;;;;5071756;28;20542;-71
2022/12/13 12:19:27;;;;;;;1999.90;999.90;;;;;;;;;;5088149;28;20208;-71
2022/12/13 12:22:18;;;;;;;1999.90;999.90;;;;;;;;;;5099737;28;20936;-71
2022/12/13 12:25:13;;;;;;;1999.90;999.90;;;;;;;;;;5093663;28;20544;-70
2022/12/13 12:28:05;;;;;;;1999.90;999.90;;;;;;;;;;5088612;28;21152;-72
2022/12/13 12:30:53;;;;;;;1999.90;999.90;;;;;;;;;;5074967;28;20445;-72
2022/12/13 12:33:42;;;;;;;1999.90;999.90;;;;;;;;;;5095807;28;20528;-72
2022/12/13 12:36:38;;;;;;;1999.90;999.90;;;;;;;;;;5088630;28;20517;-71
2022/12/13 12:39:33;;;;;;;1999.90;999.90;;;;;;;;;;5103381;28;20792;-72
2022/12/13 12:42:29;;;;;;;1999.90;999.90;;;;;;;;;;5100037;28;20417;-72
2022/12/13 12:45:22;;;;;;;1999.90;999.90;;;;;;;;;;5094504;28;20228;-72
2022/12/13 12:48:15;;;;;;;1999.90;999.90;;;;;;;;;;5081757;28;20492;-71
2022/12/13 12:51:03;;;;;;;1999.90;999.90;;;;;;;;;;5070263;28;21089;-71
2022/12/13 12:53:53;;;;;;;1999.90;999.90;;;;;;;;;;5070245;28;21354;-72
2022/12/13 12:56:42;;;;;;;1999.90;999.90;;;;;;;;;;5070825;28;20816;-70
2022/12/13 12:59:31;;;;;;;1999.90;999.90;;;;;;;;;;5071112;28;20829;-72
2022/12/13 13:02:21;;;;;;;1999.90;999.90;;;;;;;;;;5071203;28;20474;-71
2022/12/13 13:05:12;;;;;;;1999.90;999.90;;;;;;;;;;5070762;28;20430;-71
2022/12/13 13:08:01;;;;;;;1999.90;999.90;;;;;;;;;;5084042;28;22213;-72
2022/12/13 13:10:46;;;;;;;1999.90;999.90;;;;;;;;;;5088013;28;20534;-72
2022/12/13 13:13:44;;;;;;;1999.90;999.90;;;;;;;;;;5090472;28;20455;-71
2022/12/13 13:16:32;;;;;;;1999.90;999.90;;;;;;;;;;5084956;28;20503;-71
2022/12/13 13:19:35;;;;;;;1999.90;999.90;;;;;;;;;;5102778;28;20444;-72
2022/12/13 13:22:30;;;;;;;1999.90;999.90;;;;;;;;;;5094900;28;20817;-72
2022/12/13 13:25:24;;;;;;;1999.90;999.90;;;;;;;;;;5094827;28;20523;-71
2022/12/13 13:28:14;;;;;;;1999.90;999.90;;;;;;;;;;5095254;28;20416;-71
2022/12/13 13:31:03;;;;;;;1999.90;999.90;;;;;;;;;;5094835;28;20544;-71
2022/12/13 13:33:49;;;;;;;1999.90;999.90;;;;;;;;;;5094931;28;20441;-71
2022/12/13 13:36:47;;;;;;;1999.90;999.90;;;;;;;;;;5094726;28;20412;-71
2022/12/13 13:39:46;;;;;;;1999.90;999.90;;;;;;;;;;5094829;28;20543;-71
2022/12/13 13:42:33;;;;;;;1999.90;999.90;;;;;;;;;;5094682;28;20449;-71
2022/12/13 13:45:19;;;;;;;1999.90;999.90;;;;;;;;;;5094264;28;20479;-71
2022/12/13 13:48:12;;;;;;;1999.90;999.90;;;;;;;;;;5094763;28;20417;-72
2022/12/13 13:51:20;;;;;;;1999.90;999.90;;;;;;;;;;5094786;28;21150;-72
2022/12/13 13:54:23;;;;;;;1999.90;999.90;;;;;;;;;;5094569;28;20954;-72
2022/12/13 13:57:21;;;;;;;1999.90;999.90;;;;;;;;;;5094572;28;20467;-71
2022/12/13 14:00:14;;;;;;;1999.90;999.90;;;;;;;;;;5094397;28;20409;-71
2022/12/13 14:03:26;;;;;;;1999.90;999.90;;;;;;;;;;5094286;28;20457;-71
2022/12/13 14:06:32;;;;;;;1999.90;999.90;;;;;;;;;;5093731;28;20484;-71
2022/12/13 14:09:43;;;;;;;1999.90;999.90;;;;;;;;;;5093755;28;20456;-72
2022/12/13 14:12:55;;;;;;;1999.90;999.90;;;;;;;;;;5094223;28;20211;-71
2022/12/13 14:16:09;;;;;;;1999.90;999.90;;;;;;;;;;5056751;28;20448;-71
2022/12/13 14:19:12;;;;;;;1999.90;999.90;;;;;;;;;;5094032;28;20783;-71
2022/12/13 14:22:16;;;;;;;1999.90;999.90;;;;;;;;;;5094116;28;20512;-72
2022/12/13 14:25:22;;;;;;;1999.90;999.90;;;;;;;;;;5093335;28;20486;-71
2022/12/13 14:28:11;;;;;;;1999.90;999.90;;;;;;;;;;5094024;28;20425;-71
2022/12/13 14:30:56;;;;;;;1999.90;999.90;;;;;;;;;;5093923;28;20441;-71
2022/12/13 14:33:44;;;;;;;1999.90;999.90;;;;;;;;;;5093764;28;20826;-72
2022/12/13 14:36:34;;;;;;;1999.90;999.90;;;;;;;;;;5093546;28;20769;-71
2022/12/13 14:39:20;;;;;;;1999.90;999.90;;;;;;;;;;5093466;28;20919;-71
2022/12/13 14:42:20;;;;;;;1999.90;999.90;;;;;;;;;;5093647;28;20779;-72
2022/12/13 14:45:16;;;;;;;1999.90;999.90;;;;;;;;;;5093280;28;20485;-71
2022/12/13 14:48:03;;;;;;;1999.90;999.90;;;;;;;;;;5093570;28;20413;-71
2022/12/13 14:50:50;;;;;;;1999.90;999.90;;;;;;;;;;5093795;28;20551;-71
2022/12/13 14:53:40;;;;;;;1999.90;999.90;;;;;;;;;;5093419;28;20406;-72
2022/12/13 14:56:25;;;;;;;1999.90;999.90;;;;;;;;;;5093225;28;20946;-72
2022/12/13 14:59:11;;;;;;;1999.90;999.90;;;;;;;;;;5093278;28;20412;-71
2022/12/13 15:01:58;;;;;;;1999.90;999.90;;;;;;;;;;5093080;28;20421;-71
2022/12/13 15:04:43;;;;;;;1999.90;999.90;;;;;;;;;;5092995;28;20434;-70
2022/12/13 15:07:31;;;;;;;1999.90;999.90;;;;;;;;;;5093164;28;20417;-71
2022/12/13 15:10:19;;;;;;;1999.90;999.90;;;;;;;;;;5093161;28;20937;-71
2022/12/13 15:13:04;;;;;;;1999.90;999.90;;;;;;;;;;5092895;28;20716;-70
2022/12/13 15:15:52;;;;;;;1999.90;999.90;;;;;;;;;;5092733;28;20429;-71
2022/12/13 15:18:37;;;;;;;1999.90;999.90;;;;;;;;;;5092995;28;20428;-71
2022/12/13 15:21:23;;;;;;;1999.90;999.90;;;;;;;;;;5092938;28;20764;-70
2022/12/13 15:24:11;;;;;;;1999.90;999.90;;;;;;;;;;5092431;28;20480;-71
2022/12/13 15:26:57;;;;;;;1999.90;999.90;;;;;;;;;;5092846;28;21001;-72
2022/12/13 15:29:46;;;;;;;1999.90;999.90;;;;;;;;;;5092828;28;20488;-71
2022/12/13 15:32:31;;;;;;;1999.90;999.90;;;;;;;;;;5091104;28;20773;-71
2022/12/13 15:35:16;;;;;;;1999.90;999.90;;;;;;;;;;5085781;28;20229;-71
2022/12/13 15:38:01;;;;;;;1999.90;999.90;;;;;;;;;;5104415;28;20780;-71
2022/12/13 15:40:48;;;;;;;1999.90;999.90;;;;;;;;;;5112960;28;20420;-71
2022/12/13 15:43:35;;;;;;;1999.90;999.90;;;;;;;;;;5087162;28;20461;-71
2022/12/13 15:46:24;;;;;;;1999.90;999.90;;;;;;;;;;5089983;28;20571;-71
2022/12/13 15:49:18;;;;;;;1999.90;999.90;;;;;;;;;;5080381;28;20964;-71
2022/12/13 15:52:04;;;;;;;1999.90;999.90;;;;;;;;;;5079109;28;20889;-72
2022/12/13 15:54:54;;;;;;;1999.90;999.90;;;;;;;;;;5080482;28;20439;-71
2022/12/13 15:57:49;;;;;;;1999.90;999.90;;;;;;;;;;5076490;28;20414;-72
2022/12/13 16:00:35;;;;;;;1999.90;999.90;;;;;;;;;;5073454;28;20421;-71
2022/12/13 16:03:21;;;;;;;1999.90;999.90;;;;;;;;;;5077200;28;20460;-73
2022/12/13 16:06:08;;;;;;;1999.90;999.90;;;;;;;;;;5070962;28;20426;-74
2022/12/13 16:08:54;;;;;;;1999.90;999.90;;;;;;;;;;5086635;28;20830;-73
2022/12/13 16:11:46;;;;;;;1999.90;999.90;;;;;;;;;;5085291;28;20410;-71
2022/12/13 16:14:40;;;;;;;1999.90;999.90;;;;;;;;;;5070737;28;20422;-72
2022/12/13 16:17:26;;;;;;;1999.90;999.90;;;;;;;;;;5074952;28;20433;-71
2022/12/13 16:20:12;;;;;;;1999.90;999.90;;;;;;;;;;5089684;28;20408;-72
2022/12/13 16:22:57;;;;;;;1999.90;999.90;;;;;;;;;;5089695;28;21064;-71
2022/12/13 16:25:42;;;;;;;1999.90;999.90;;;;;;;;;;5089150;28;20448;-72
2022/12/13 16:28:27;;;;;;;1999.90;999.90;;;;;;;;;;5091065;28;20429;-72
2022/12/13 16:31:21;;;;;;;1999.90;999.90;;;;;;;;;;5085515;28;20507;-72
2022/12/13 16:34:06;;;;;;;1999.90;999.90;;;;;;;;;;5072116;28;20217;-72
2022/12/13 16:36:51;;;;;;;1999.90;999.90;;;;;;;;;;5071638;28;20410;-71
2022/12/13 16:39:36;;;;;;;1999.90;999.90;;;;;;;;;;5071556;28;20492;-71
2022/12/13 16:42:21;;;;;;;1999.90;999.90;;;;;;;;;;5072241;28;20939;-73
2022/12/13 16:45:11;;;;;;;1999.90;999.90;;;;;;;;;;5093963;28;20545;-70
2022/12/13 16:47:58;;;;;;;1999.90;999.90;;;;;;;;;;5088679;28;20927;-72
2022/12/13 16:50:44;;;;;;;1999.90;999.90;;;;;;;;;;5074382;28;20433;-72
2022/12/13 16:53:29;;;;;;;1999.90;999.90;;;;;;;;;;5078671;28;20390;-72
2022/12/13 16:56:15;;;;;;;1999.90;999.90;;;;;;;;;;5090790;28;20622;-73
2022/12/13 16:59:00;;;;;;;1999.90;999.90;;;;;;;;;;5093396;28;20428;-72
2022/12/13 17:01:45;;;;;;;1999.90;999.90;;;;;;;;;;5083335;28;21030;-72
2022/12/13 17:04:32;;;;;;;1999.90;999.90;;;;;;;;;;5081064;28;20605;-71
2022/12/13 17:07:17;;;;;;;1999.90;999.90;;;;;;;;;;5092440;28;20452;-70
2022/12/13 17:10:03;;;;;;;1999.90;999.90;;;;;;;;;;5100669;28;20440;-73
2022/12/13 17:12:48;;;;;;;1999.90;999.90;;;;;;;;;;5106621;28;20432;-72
2022/12/13 17:15:33;;;;;;;1999.90;999.90;;;;;;;;;;5094795;28;20432;-71
2022/12/13 17:18:18;;;;;;;1999.90;999.90;;;;;;;;;;5088060;28;20433;-72
2022/12/13 17:21:07;;;;;;;1999.90;999.90;;;;;;;;;;5074920;28;20413;-71
2022/12/13 17:23:53;;;;;;;1999.90;999.90;;;;;;;;;;5074520;28;20471;-72
2022/12/13 17:26:38;;;;;;;1999.90;999.90;;;;;;;;;;5074461;28;21002;-73
2022/12/13 17:29:24;;;;;;;1999.90;999.90;;;;;;;;;;5075604;28;20511;-72
2022/12/13 17:32:09;;;;;;;1999.90;999.90;;;;;;;;;;5075365;28;20532;-74
2022/12/13 17:34:54;;;;;;;1999.90;999.90;;;;;;;;;;5075838;28;20437;-73
2022/12/13 17:37:40;;;;;;;1999.90;999.90;;;;;;;;;;5074422;28;20499;-73
2022/12/13 17:40:25;;;;;;;1999.90;999.90;;;;;;;;;;5074483;28;20788;-74
2022/12/13 17:43:10;;;;;;;1999.90;999.90;;;;;;;;;;5074433;28;20413;-74
2022/12/13 17:45:56;;;;;;;1999.90;999.90;;;;;;;;;;5074010;28;20421;-73
2022/12/13 17:48:41;;;;;;;1999.90;999.90;;;;;;;;;;5074396;28;20488;-72
2022/12/13 17:51:26;;;;;;;1999.90;999.90;;;;;;;;;;5074081;28;20414;-73
2022/12/13 17:54:12;;;;;;;1999.90;999.90;;;;;;;;;;5093819;28;20227;-74
2022/12/13 17:56:57;;;;;;;1999.90;999.90;;;;;;;;;;5094517;28;20424;-73
2022/12/13 17:59:43;;;;;;;1999.90;999.90;;;;;;;;;;5094304;28;21264;-73
2022/12/13 18:02:28;;;;;;;1999.90;999.90;;;;;;;;;;5077295;28;20420;-73
2022/12/13 18:05:13;;;;;;;1999.90;999.90;;;;;;;;;;5073396;28;20469;-73
2022/12/13 18:07:58;;;;;;;1999.90;999.90;;;;;;;;;;5074006;28;20421;-73
2022/12/13 18:10:51;;;;;;;1999.90;999.90;;;;;;;;;;5073964;28;20418;-73
2022/12/13 18:13:36;;;;;;;1999.90;999.90;;;;;;;;;;5073799;28;20398;-72
2022/12/13 18:16:22;;;;;;;1999.90;999.90;;;;;;;;;;5073522;28;20568;-74
2022/12/13 18:19:08;;;;;;;1999.90;999.90;;;;;;;;;;5073904;28;20413;-72
2022/12/13 18:21:53;;;;;;;1999.90;999.90;;;;;;;;;;5084200;28;20475;-75
2022/12/13 18:24:37;;;;;;;1999.90;999.90;;;;;;;;;;5101572;28;21111;-72
2022/12/13 18:27:24;;;;;;;1999.90;999.90;;;;;;;;;;5093704;28;20787;-74
2022/12/13 18:30:10;;;;;;;1999.90;999.90;;;;;;;;;;5076313;28;20954;-73
2022/12/13 18:32:55;;;;;;;1999.90;999.90;;;;;;;;;;5072441;28;20500;-73
2022/12/13 18:35:40;;;;;;;1999.90;999.90;;;;;;;;;;5095667;28;20974;-73
2022/12/13 18:38:25;;;;;;;1999.90;999.90;;;;;;;;;;5098225;28;20428;-73
2022/12/13 18:41:11;;;;;;;1999.90;999.90;;;;;;;;;;5101239;28;20420;-72
2022/12/13 18:43:58;;;;;;;1999.90;999.90;;;;;;;;;;5093327;28;20843;-74
2022/12/13 18:46:45;;;;;;;1999.90;999.90;;;;;;;;;;5082637;28;21040;-75
2022/12/13 18:49:29;;;;;;;1999.90;999.90;;;;;;;;;;5076353;28;20461;-74
2022/12/13 18:52:14;;;;;;;1999.90;999.90;;;;;;;;;;5097779;28;20568;-74
2022/12/13 18:54:59;;;;;;;1999.90;999.90;;;;;;;;;;5093968;28;20541;-74